createdAt,value
2016-08-08T00:00:29.824Z,0
2016-08-08T00:01:28.903Z,0
2016-08-08T00:02:28.900Z,0
2016-08-08T00:03:28.916Z,0
2016-08-08T00:04:29.143Z,0
2016-08-08T00:05:28.927Z,0
2016-08-08T00:06:28.868Z,0
2016-08-08T00:07:28.878Z,0
2016-08-08T00:08:28.865Z,0
2016-08-08T00:09:28.875Z,0
2016-08-08T00:10:28.862Z,0
2016-08-08T00:11:28.861Z,0
2016-08-08T00:12:28.867Z,0
2016-08-08T00:13:28.837Z,0
2016-08-08T00:14:28.840Z,0
2016-08-08T00:15:28.826Z,0
2016-08-08T00:16:28.848Z,0
2016-08-08T00:17:28.820Z,0
2016-08-08T00:18:28.982Z,0
2016-08-08T00:19:28.844Z,0
2016-08-08T00:20:28.831Z,0
2016-08-08T00:21:28.805Z,0
2016-08-08T00:22:28.818Z,0
2016-08-08T00:23:28.813Z,0
2016-08-08T00:24:28.787Z,0
2016-08-08T00:25:28.793Z,0
2016-08-08T00:26:28.784Z,0
2016-08-08T00:27:28.796Z,0
2016-08-08T00:28:28.794Z,0
2016-08-08T00:29:28.818Z,0
2016-08-08T00:30:28.806Z,0
2016-08-08T00:31:28.747Z,0
2016-08-08T00:32:28.770Z,0
2016-08-08T00:33:28.757Z,0
2016-08-08T00:34:28.968Z,0
2016-08-08T00:35:28.793Z,0
2016-08-08T00:36:29.576Z,0
2016-08-08T00:37:29.551Z,0
2016-08-08T00:38:28.728Z,0
2016-08-08T00:39:28.767Z,0
2016-08-08T00:40:28.726Z,0
2016-08-08T00:41:28.729Z,0
2016-08-08T00:42:28.711Z,0
2016-08-08T00:43:28.733Z,0
2016-08-08T00:44:28.734Z,0
2016-08-08T00:45:28.724Z,0
2016-08-08T00:46:28.698Z,0
2016-08-08T00:47:28.723Z,0
2016-08-08T00:48:28.704Z,0
2016-08-08T00:49:28.709Z,0
2016-08-08T00:50:28.701Z,0
2016-08-08T00:51:28.674Z,0
2016-08-08T00:52:28.680Z,0
2016-08-08T00:53:28.695Z,0
2016-08-08T00:54:28.683Z,0
2016-08-08T00:55:28.697Z,0
2016-08-08T00:56:28.663Z,0
2016-08-08T00:57:28.663Z,0
2016-08-08T00:58:28.646Z,0
2016-08-08T00:59:28.660Z,0
2016-08-08T01:00:29.570Z,0
2016-08-08T01:01:28.653Z,0
2016-08-08T01:02:28.641Z,0
2016-08-08T01:03:28.644Z,0
2016-08-08T01:04:28.651Z,0
2016-08-08T01:05:28.618Z,0
2016-08-08T01:06:28.657Z,0
2016-08-08T01:07:28.634Z,0
2016-08-08T01:08:28.605Z,0
2016-08-08T01:09:28.600Z,0
2016-08-08T01:10:28.591Z,0
2016-08-08T01:11:30.126Z,0
2016-08-08T01:12:28.629Z,0
2016-08-08T01:13:28.574Z,0
2016-08-08T01:14:28.584Z,0
2016-08-08T01:15:29.330Z,0
2016-08-08T01:16:28.616Z,0
2016-08-08T01:17:29.273Z,0
2016-08-08T01:18:28.574Z,0
2016-08-08T01:19:29.279Z,0
2016-08-08T01:20:28.570Z,0
2016-08-08T01:21:28.579Z,0
2016-08-08T01:22:29.345Z,0
2016-08-08T01:23:28.573Z,0
2016-08-08T01:24:28.624Z,0
2016-08-08T01:25:28.545Z,0
2016-08-08T01:26:28.556Z,0
2016-08-08T01:27:29.233Z,0
2016-08-08T01:28:28.540Z,0
2016-08-08T01:29:28.582Z,0
2016-08-08T01:30:28.549Z,0
2016-08-08T01:31:28.550Z,0
2016-08-08T01:32:28.545Z,0
2016-08-08T01:33:28.558Z,0
2016-08-08T01:34:29.985Z,0
2016-08-08T01:35:28.586Z,0
2016-08-08T01:36:28.571Z,0
2016-08-08T01:37:28.529Z,0
2016-08-08T01:38:28.478Z,0
2016-08-08T01:39:29.204Z,0
2016-08-08T01:40:28.498Z,0
2016-08-08T01:41:28.510Z,0
2016-08-08T01:42:28.530Z,0
2016-08-08T01:43:28.518Z,0
2016-08-08T01:44:28.536Z,0
2016-08-08T01:45:28.547Z,0
2016-08-08T01:46:28.506Z,0
2016-08-08T01:47:28.502Z,0
2016-08-08T01:48:28.514Z,0
2016-08-08T01:49:28.497Z,0
2016-08-08T01:50:28.464Z,0
2016-08-08T01:51:28.480Z,0
2016-08-08T01:52:28.479Z,0
2016-08-08T01:53:28.500Z,0
2016-08-08T01:54:28.497Z,0
2016-08-08T01:55:28.439Z,0
2016-08-08T01:56:31.582Z,0
2016-08-08T01:57:28.479Z,0
2016-08-08T01:58:28.483Z,0
2016-08-08T01:59:28.478Z,0
2016-08-08T02:00:28.486Z,0
2016-08-08T02:01:29.215Z,0
2016-08-08T02:02:28.452Z,0
2016-08-08T02:03:28.464Z,0
2016-08-08T02:04:28.413Z,0
2016-08-08T02:05:28.431Z,0
2016-08-08T02:06:28.444Z,0
2016-08-08T02:07:28.435Z,0
2016-08-08T02:08:28.447Z,0
2016-08-08T02:09:28.479Z,0
2016-08-08T02:10:28.466Z,0
2016-08-08T02:11:28.479Z,0
2016-08-08T02:12:28.423Z,0
2016-08-08T02:13:28.484Z,0
2016-08-08T02:14:28.506Z,0
2016-08-08T02:15:28.395Z,0
2016-08-08T02:16:28.420Z,0
2016-08-08T02:17:28.421Z,0
2016-08-08T02:18:28.426Z,0
2016-08-08T02:19:28.435Z,0
2016-08-08T02:20:28.440Z,0
2016-08-08T02:21:29.165Z,0
2016-08-08T02:22:28.460Z,0
2016-08-08T02:23:28.448Z,0
2016-08-08T02:24:28.462Z,0
2016-08-08T02:25:28.472Z,0
2016-08-08T02:26:28.484Z,0
2016-08-08T02:27:28.456Z,0
2016-08-08T02:28:28.508Z,0
2016-08-08T02:29:28.519Z,0
2016-08-08T02:30:29.923Z,0
2016-08-08T02:31:28.429Z,0
2016-08-08T02:32:28.435Z,0
2016-08-08T02:33:28.496Z,0
2016-08-08T02:34:28.465Z,0
2016-08-08T02:35:28.512Z,0
2016-08-08T02:36:28.479Z,0
2016-08-08T02:37:30.956Z,0
2016-08-08T02:38:29.174Z,0
2016-08-08T02:39:28.486Z,0
2016-08-08T02:40:28.444Z,0
2016-08-08T02:41:29.195Z,0
2016-08-08T02:42:28.470Z,0
2016-08-08T02:43:28.469Z,0
2016-08-08T02:44:28.479Z,0
2016-08-08T02:45:28.459Z,0
2016-08-08T02:46:28.504Z,0
2016-08-08T02:47:28.507Z,0
2016-08-08T02:48:28.512Z,0
2016-08-08T02:49:28.505Z,0
2016-08-08T02:50:28.535Z,0
2016-08-08T02:51:28.522Z,0
2016-08-08T02:52:28.413Z,0
2016-08-08T02:53:28.456Z,0
2016-08-08T02:54:29.180Z,0
2016-08-08T02:55:28.462Z,0
2016-08-08T02:56:28.437Z,0
2016-08-08T02:57:28.558Z,0
2016-08-08T02:58:28.473Z,0
2016-08-08T02:59:28.474Z,0
2016-08-08T03:00:28.499Z,0
2016-08-08T03:01:28.496Z,0
2016-08-08T03:02:29.212Z,0
2016-08-08T03:03:28.516Z,0
2016-08-08T03:04:28.462Z,0
2016-08-08T03:05:28.503Z,0
2016-08-08T03:06:28.460Z,0
2016-08-08T03:07:28.464Z,0
2016-08-08T03:08:29.237Z,0
2016-08-08T03:09:28.503Z,0
2016-08-08T03:10:29.188Z,0
2016-08-08T03:11:29.218Z,0
2016-08-08T03:12:28.562Z,0
2016-08-08T03:13:28.494Z,0
2016-08-08T03:14:28.507Z,0
2016-08-08T03:15:28.516Z,0
2016-08-08T03:16:29.220Z,0
2016-08-08T03:17:28.561Z,0
2016-08-08T03:18:28.541Z,0
2016-08-08T03:19:28.541Z,0
2016-08-08T03:20:28.539Z,0
2016-08-08T03:21:28.529Z,0
2016-08-08T03:22:28.565Z,0
2016-08-08T03:23:28.572Z,0
2016-08-08T03:24:28.548Z,0
2016-08-08T03:25:28.554Z,0
2016-08-08T03:26:29.401Z,0
2016-08-08T03:27:28.663Z,0
2016-08-08T03:28:28.574Z,0
2016-08-08T03:29:28.631Z,0
2016-08-08T03:30:28.570Z,0
2016-08-08T03:31:28.589Z,0
2016-08-08T03:32:28.602Z,0
2016-08-08T03:33:28.626Z,0
2016-08-08T03:34:28.596Z,0
2016-08-08T03:35:28.634Z,0
2016-08-08T03:36:28.633Z,0
2016-08-08T03:37:28.676Z,0
2016-08-08T03:38:28.672Z,0
2016-08-08T03:39:28.610Z,0
2016-08-08T03:40:29.419Z,0
2016-08-08T03:41:28.639Z,0
2016-08-08T03:43:28.684Z,5
2016-08-08T03:44:28.730Z,5
2016-08-08T03:45:28.671Z,5
2016-08-08T03:46:28.685Z,5
2016-08-08T03:47:28.926Z,5
2016-08-08T03:48:28.715Z,5
2016-08-08T03:49:28.694Z,5
2016-08-08T03:50:28.725Z,5
2016-08-08T03:51:28.736Z,10
2016-08-08T03:52:28.722Z,10
2016-08-08T03:53:28.713Z,10
2016-08-08T03:54:28.742Z,10
2016-08-08T03:55:28.896Z,10
2016-08-08T03:56:28.730Z,10
2016-08-08T03:57:28.877Z,10
2016-08-08T03:58:30.173Z,15
2016-08-08T03:59:28.755Z,15
2016-08-08T04:00:28.764Z,15
2016-08-08T04:01:28.728Z,15
2016-08-08T04:02:28.759Z,15
2016-08-08T04:03:28.789Z,20
2016-08-08T04:04:28.733Z,20
2016-08-08T04:05:28.773Z,20
2016-08-08T04:06:28.751Z,20
2016-08-08T04:07:28.722Z,20
2016-08-08T04:08:28.736Z,25
2016-08-08T04:09:28.732Z,25
2016-08-08T04:10:28.743Z,25
2016-08-08T04:11:28.738Z,25
2016-08-08T04:13:28.729Z,30
2016-08-08T04:14:28.771Z,30
2016-08-08T04:15:29.531Z,30
2016-08-08T04:16:28.783Z,30
2016-08-08T04:17:28.806Z,30
2016-08-08T04:18:28.765Z,35
2016-08-08T04:19:28.774Z,35
2016-08-08T04:20:28.849Z,35
2016-08-08T04:21:28.805Z,35
2016-08-08T04:22:28.789Z,35
2016-08-08T04:23:28.805Z,40
2016-08-08T04:24:29.609Z,40
2016-08-08T04:25:28.803Z,40
2016-08-08T04:26:29.764Z,40
2016-08-08T04:28:28.852Z,45
2016-08-08T04:29:29.719Z,45
2016-08-08T04:30:28.943Z,45
2016-08-08T04:31:28.867Z,45
2016-08-08T04:32:29.700Z,45
2016-08-08T04:33:28.872Z,45
2016-08-08T04:34:29.715Z,50
2016-08-08T04:35:28.911Z,50
2016-08-08T04:36:28.892Z,50
2016-08-08T04:37:29.746Z,50
2016-08-08T04:38:28.931Z,50
2016-08-08T04:39:28.893Z,55
2016-08-08T04:40:28.915Z,55
2016-08-08T04:41:28.921Z,55
2016-08-08T04:43:28.923Z,55
2016-08-08T04:44:28.928Z,60
2016-08-08T04:45:28.913Z,60
2016-08-08T04:46:28.924Z,60
2016-08-08T04:47:28.885Z,60
2016-08-08T04:48:28.883Z,60
2016-08-08T04:49:28.859Z,60
2016-08-08T04:50:28.895Z,65
2016-08-08T04:51:29.029Z,65
2016-08-08T04:52:28.866Z,65
2016-08-08T04:53:28.893Z,65
2016-08-08T04:54:28.859Z,65
2016-08-08T04:55:28.840Z,65
2016-08-08T04:56:28.826Z,70
2016-08-08T04:58:28.841Z,70
2016-08-08T04:59:28.840Z,70
2016-08-08T05:00:28.836Z,70
2016-08-08T05:01:28.818Z,70
2016-08-08T05:02:28.815Z,70
2016-08-08T05:03:28.885Z,75
2016-08-08T05:04:28.806Z,75
2016-08-08T05:05:28.800Z,75
2016-08-08T05:06:28.810Z,75
2016-08-08T05:07:28.789Z,75
2016-08-08T05:08:28.804Z,75
2016-08-08T05:09:29.672Z,75
2016-08-08T05:10:28.815Z,75
2016-08-08T05:11:28.787Z,80
2016-08-08T05:13:28.781Z,80
2016-08-08T05:14:28.770Z,80
2016-08-08T05:15:28.759Z,80
2016-08-08T05:16:28.759Z,80
2016-08-08T05:17:28.762Z,80
2016-08-08T05:18:28.756Z,85
2016-08-08T05:19:28.763Z,85
2016-08-08T05:20:29.642Z,85
2016-08-08T05:21:28.751Z,85
2016-08-08T05:22:28.748Z,85
2016-08-08T05:23:28.783Z,85
2016-08-08T05:24:28.732Z,85
2016-08-08T05:25:28.787Z,85
2016-08-08T05:26:28.716Z,85
2016-08-08T05:27:28.730Z,90
2016-08-08T05:28:28.733Z,90
2016-08-08T05:29:28.705Z,90
2016-08-08T05:30:28.766Z,90
2016-08-08T05:31:29.628Z,90
2016-08-08T05:32:29.494Z,90
2016-08-08T05:33:28.722Z,90
2016-08-08T05:34:28.708Z,90
2016-08-08T05:35:28.710Z,90
2016-08-08T05:36:28.709Z,90
2016-08-08T05:37:28.691Z,95
2016-08-08T05:38:28.694Z,95
2016-08-08T05:39:28.686Z,95
2016-08-08T05:40:28.695Z,95
2016-08-08T05:41:28.771Z,95
2016-08-08T05:42:28.693Z,95
2016-08-08T05:43:28.676Z,95
2016-08-08T05:44:28.657Z,95
2016-08-08T05:45:28.700Z,95
2016-08-08T05:46:28.670Z,95
2016-08-08T05:47:29.497Z,95
2016-08-08T05:48:28.655Z,95
2016-08-08T05:49:28.663Z,100
2016-08-08T05:50:28.645Z,100
2016-08-08T05:51:28.666Z,100
2016-08-08T05:52:28.672Z,100
2016-08-08T05:53:28.661Z,100
2016-08-08T05:54:28.649Z,100
2016-08-08T05:55:28.631Z,100
2016-08-08T05:56:28.643Z,100
2016-08-08T05:57:28.651Z,100
2016-08-08T05:58:28.661Z,100
2016-08-08T05:59:28.634Z,100
2016-08-08T06:00:28.616Z,105
2016-08-08T06:01:28.628Z,105
2016-08-08T06:02:28.626Z,105
2016-08-08T06:03:28.626Z,105
2016-08-08T06:04:28.617Z,105
2016-08-08T06:05:29.526Z,105
2016-08-08T06:06:29.429Z,105
2016-08-08T06:07:28.591Z,105
2016-08-08T06:08:29.449Z,105
2016-08-08T06:09:29.447Z,105
2016-08-08T06:10:28.600Z,105
2016-08-08T06:11:28.604Z,105
2016-08-08T06:12:28.583Z,105
2016-08-08T06:13:28.595Z,105
2016-08-08T06:14:29.593Z,105
2016-08-08T06:15:28.588Z,105
2016-08-08T06:16:28.589Z,105
2016-08-08T06:17:28.593Z,105
2016-08-08T06:18:28.657Z,105
2016-08-08T06:19:28.554Z,105
2016-08-08T06:20:28.615Z,110
2016-08-08T06:21:28.583Z,110
2016-08-08T06:22:28.555Z,110
2016-08-08T06:23:28.553Z,110
2016-08-08T06:24:28.545Z,110
2016-08-08T06:25:28.547Z,110
2016-08-08T06:26:28.563Z,110
2016-08-08T06:27:29.486Z,95
2016-08-08T06:28:28.565Z,110
2016-08-08T06:29:28.545Z,110
2016-08-08T06:30:28.605Z,110
2016-08-08T06:31:28.553Z,110
2016-08-08T06:32:28.551Z,115
2016-08-08T06:33:28.535Z,115
2016-08-08T06:34:28.543Z,115
2016-08-08T06:35:28.531Z,115
2016-08-08T06:36:28.564Z,115
2016-08-08T06:37:28.524Z,115
2016-08-08T06:38:28.530Z,115
2016-08-08T06:39:28.561Z,115
2016-08-08T06:40:28.541Z,120
2016-08-08T06:41:28.514Z,115
2016-08-08T06:42:28.513Z,120
2016-08-08T06:43:28.531Z,120
2016-08-08T06:44:29.404Z,120
2016-08-08T06:45:28.514Z,120
2016-08-08T06:46:28.531Z,120
2016-08-08T06:47:28.527Z,140
2016-08-08T06:48:28.521Z,140
2016-08-08T06:49:28.499Z,150
2016-08-08T06:50:28.627Z,135
2016-08-08T06:51:28.527Z,135
2016-08-08T06:52:28.541Z,130
2016-08-08T06:53:28.497Z,130
2016-08-08T06:54:28.504Z,140
2016-08-08T06:55:28.504Z,160
2016-08-08T06:56:29.384Z,170
2016-08-08T06:57:28.542Z,200
2016-08-08T06:58:28.513Z,215
2016-08-08T06:59:28.510Z,220
2016-08-08T07:00:28.508Z,205
2016-08-08T07:01:28.475Z,240
2016-08-08T07:02:28.478Z,335
2016-08-08T07:03:28.490Z,350
2016-08-08T07:04:28.522Z,345
2016-08-08T07:05:28.556Z,350
2016-08-08T07:06:28.522Z,360
2016-08-08T07:07:28.526Z,355
2016-08-08T07:08:28.470Z,370
2016-08-08T07:09:28.472Z,370
2016-08-08T07:10:28.488Z,375
2016-08-08T07:11:28.479Z,380
2016-08-08T07:12:28.504Z,380
2016-08-08T07:13:28.504Z,380
2016-08-08T07:14:28.551Z,360
2016-08-08T07:15:29.430Z,375
2016-08-08T07:16:28.502Z,375
2016-08-08T07:17:28.514Z,370
2016-08-08T07:18:29.403Z,410
2016-08-08T07:19:28.501Z,250
2016-08-08T07:20:28.504Z,235
2016-08-08T07:21:28.650Z,385
2016-08-08T07:22:28.505Z,230
2016-08-08T07:23:28.590Z,265
2016-08-08T07:24:28.521Z,275
2016-08-08T07:25:28.526Z,265
2016-08-08T07:26:28.590Z,260
2016-08-08T07:27:28.553Z,295
2016-08-08T07:28:28.581Z,300
2016-08-08T07:29:28.546Z,270
2016-08-08T07:30:28.679Z,345
2016-08-08T07:31:28.570Z,345
2016-08-08T07:32:28.576Z,355
2016-08-08T07:33:28.595Z,360
2016-08-08T07:34:28.582Z,375
2016-08-08T07:35:28.596Z,370
2016-08-08T07:36:28.608Z,385
2016-08-08T07:37:28.638Z,445
2016-08-08T07:38:29.391Z,340
2016-08-08T07:39:28.676Z,320
2016-08-08T07:40:28.626Z,355
2016-08-08T07:41:28.941Z,435
2016-08-08T07:42:28.696Z,445
2016-08-08T07:43:28.691Z,345
2016-08-08T07:44:29.639Z,290
2016-08-08T07:45:28.691Z,215
2016-08-08T07:46:29.491Z,195
2016-08-08T07:47:28.685Z,185
2016-08-08T07:48:28.702Z,180
2016-08-08T07:49:28.702Z,170
2016-08-08T07:50:28.729Z,170
2016-08-08T07:51:28.730Z,165
2016-08-08T07:52:28.768Z,165
2016-08-08T07:53:28.735Z,160
2016-08-08T07:54:28.735Z,160
2016-08-08T07:55:28.762Z,160
2016-08-08T07:56:28.771Z,160
2016-08-08T07:57:28.813Z,160
2016-08-08T07:58:29.558Z,160
2016-08-08T07:59:28.771Z,160
2016-08-08T08:00:28.855Z,160
2016-08-08T08:01:28.792Z,165
2016-08-08T08:02:28.806Z,165
2016-08-08T08:03:28.825Z,165
2016-08-08T08:04:28.863Z,165
2016-08-08T08:05:28.840Z,165
2016-08-08T08:06:29.760Z,165
2016-08-08T08:07:28.847Z,165
2016-08-08T08:08:29.160Z,165
2016-08-08T08:09:29.615Z,170
2016-08-08T08:10:28.848Z,170
2016-08-08T08:11:28.855Z,170
2016-08-08T08:12:28.867Z,170
2016-08-08T08:13:28.927Z,175
2016-08-08T08:14:28.891Z,180
2016-08-08T08:15:28.889Z,180
2016-08-08T08:16:28.938Z,185
2016-08-08T08:17:28.892Z,185
2016-08-08T08:18:28.910Z,185
2016-08-08T08:19:28.951Z,185
2016-08-08T08:20:28.909Z,190
2016-08-08T08:21:28.969Z,200
2016-08-08T08:22:30.144Z,210
2016-08-08T08:23:28.917Z,215
2016-08-08T08:24:28.940Z,220
2016-08-08T08:25:28.945Z,230
2016-08-08T08:26:28.977Z,235
2016-08-08T08:27:28.936Z,230
2016-08-08T08:28:29.444Z,230
2016-08-08T08:29:29.134Z,225
2016-08-08T08:30:28.990Z,220
2016-08-08T08:31:28.970Z,210
2016-08-08T08:32:28.982Z,210
2016-08-08T08:33:29.102Z,195
2016-08-08T08:34:29.103Z,190
2016-08-08T08:35:28.967Z,165
2016-08-08T08:36:28.982Z,205
2016-08-08T08:37:29.103Z,175
2016-08-08T08:38:29.730Z,190
2016-08-08T08:39:29.097Z,220
2016-08-08T08:40:29.094Z,215
2016-08-08T08:41:29.103Z,255
2016-08-08T08:42:29.095Z,250
2016-08-08T08:44:29.098Z,235
2016-08-08T08:45:29.114Z,290
2016-08-08T08:46:29.127Z,310
2016-08-08T08:47:29.119Z,330
2016-08-08T08:48:29.120Z,345
2016-08-08T08:49:29.131Z,345
2016-08-08T08:50:29.143Z,365
2016-08-08T08:51:29.115Z,365
2016-08-08T08:52:29.134Z,330
2016-08-08T08:53:29.115Z,310
2016-08-08T08:54:29.131Z,295
2016-08-08T08:55:29.120Z,265
2016-08-08T08:56:29.125Z,260
2016-08-08T08:57:29.279Z,260
2016-08-08T08:58:29.363Z,250
2016-08-08T08:59:29.192Z,245
2016-08-08T09:00:29.799Z,275
2016-08-08T09:01:29.777Z,260
2016-08-08T09:02:29.117Z,245
2016-08-08T09:03:29.302Z,235
2016-08-08T09:04:29.126Z,225
2016-08-08T09:05:29.149Z,195
2016-08-08T09:06:29.144Z,170
2016-08-08T09:07:29.260Z,160
2016-08-08T09:08:29.271Z,190
2016-08-08T09:09:29.276Z,185
2016-08-08T09:10:29.799Z,185
2016-08-08T09:11:29.140Z,160
2016-08-08T09:12:29.259Z,180
2016-08-08T09:13:29.270Z,175
2016-08-08T09:14:29.267Z,175
2016-08-08T09:15:29.812Z,185
2016-08-08T09:16:29.292Z,215
2016-08-08T09:17:29.298Z,235
2016-08-08T09:18:29.310Z,245
2016-08-08T09:19:29.413Z,275
2016-08-08T09:20:29.414Z,315
2016-08-08T09:21:29.321Z,325
2016-08-08T09:22:29.433Z,310
2016-08-08T09:23:29.409Z,275
2016-08-08T09:24:29.357Z,270
2016-08-08T09:25:29.849Z,270
2016-08-08T09:26:29.260Z,255
2016-08-08T09:27:29.368Z,255
2016-08-08T09:29:29.382Z,215
2016-08-08T09:30:29.384Z,180
2016-08-08T09:31:29.442Z,160
2016-08-08T09:32:29.302Z,175
2016-08-08T09:33:29.411Z,160
2016-08-08T09:34:29.429Z,155
2016-08-08T09:35:29.332Z,155
2016-08-08T09:36:29.851Z,155
2016-08-08T09:37:29.241Z,155
2016-08-08T09:38:29.390Z,155
2016-08-08T09:39:29.254Z,155
2016-08-08T09:40:29.390Z,160
2016-08-08T09:41:29.370Z,155
2016-08-08T09:42:29.387Z,155
2016-08-08T09:44:29.293Z,155
2016-08-08T09:45:29.304Z,155
2016-08-08T09:46:29.932Z,155
2016-08-08T09:47:29.871Z,155
2016-08-08T09:48:29.313Z,165
2016-08-08T09:49:29.364Z,165
2016-08-08T09:50:29.365Z,165
2016-08-08T09:51:29.236Z,170
2016-08-08T09:52:29.242Z,180
2016-08-08T09:53:29.249Z,195
2016-08-08T09:54:29.260Z,175
2016-08-08T09:55:29.274Z,165
2016-08-08T09:56:29.273Z,165
2016-08-08T09:57:29.290Z,200
2016-08-08T09:59:29.396Z,210
2016-08-08T10:00:29.308Z,185
2016-08-08T10:01:29.302Z,165
2016-08-08T10:02:29.354Z,160
2016-08-08T10:03:29.362Z,160
2016-08-08T10:04:29.375Z,160
2016-08-08T10:05:29.381Z,160
2016-08-08T10:06:29.391Z,160
2016-08-08T10:07:29.394Z,165
2016-08-08T10:08:29.909Z,170
2016-08-08T10:09:29.406Z,175
2016-08-08T10:10:29.415Z,175
2016-08-08T10:11:29.371Z,170
2016-08-08T10:12:29.289Z,170
2016-08-08T10:14:29.345Z,180
2016-08-08T10:15:29.350Z,190
2016-08-08T10:16:29.367Z,190
2016-08-08T10:17:29.381Z,210
2016-08-08T10:18:29.367Z,230
2016-08-08T10:19:29.379Z,255
2016-08-08T10:20:29.392Z,255
2016-08-08T10:21:29.388Z,255
2016-08-08T10:22:29.972Z,255
2016-08-08T10:23:29.413Z,250
2016-08-08T10:24:29.956Z,215
2016-08-08T10:25:29.431Z,310
2016-08-08T10:26:29.429Z,415
2016-08-08T10:27:29.329Z,440
2016-08-08T10:28:29.343Z,385
2016-08-08T10:29:29.356Z,405
2016-08-08T10:30:29.361Z,450
2016-08-08T10:31:29.363Z,430
2016-08-08T10:32:29.382Z,430
2016-08-08T10:33:29.385Z,445
2016-08-08T10:34:29.389Z,425
2016-08-08T10:35:29.403Z,400
2016-08-08T10:36:29.406Z,365
2016-08-08T10:37:29.408Z,345
2016-08-08T10:38:29.425Z,370
2016-08-08T10:39:29.381Z,395
2016-08-08T10:40:29.331Z,445
2016-08-08T10:41:29.330Z,450
2016-08-08T10:42:29.417Z,400
2016-08-08T10:43:29.349Z,280
2016-08-08T10:44:29.356Z,285
2016-08-08T10:45:29.379Z,330
2016-08-08T10:46:29.438Z,340
2016-08-08T10:47:29.369Z,365
2016-08-08T10:48:29.378Z,375
2016-08-08T10:49:29.388Z,320
2016-08-08T10:50:29.397Z,275
2016-08-08T10:51:29.410Z,310
2016-08-08T10:52:29.369Z,360
2016-08-08T10:53:29.377Z,370
2016-08-08T10:54:29.389Z,350
2016-08-08T10:55:29.395Z,290
2016-08-08T10:56:29.406Z,255
2016-08-08T10:57:29.404Z,250
2016-08-08T10:58:29.473Z,255
2016-08-08T10:59:29.419Z,255
2016-08-08T11:00:30.048Z,245
2016-08-08T11:01:29.439Z,245
2016-08-08T11:02:29.480Z,235
2016-08-08T11:03:29.448Z,245
2016-08-08T11:04:29.358Z,255
2016-08-08T11:05:29.368Z,290
2016-08-08T11:06:29.377Z,370
2016-08-08T11:07:29.374Z,420
2016-08-08T11:08:29.382Z,480
2016-08-08T11:09:29.401Z,475
2016-08-08T11:10:29.402Z,410
2016-08-08T11:11:30.114Z,440
2016-08-08T11:12:29.460Z,445
2016-08-08T11:13:29.426Z,425
2016-08-08T11:14:29.434Z,440
2016-08-08T11:15:29.441Z,415
2016-08-08T11:16:29.395Z,395
2016-08-08T11:17:29.398Z,435
2016-08-08T11:18:29.431Z,465
2016-08-08T11:19:29.391Z,380
2016-08-08T11:20:29.403Z,385
2016-08-08T11:21:29.441Z,435
2016-08-08T11:22:30.136Z,435
2016-08-08T11:23:29.392Z,455
2016-08-08T11:24:29.460Z,510
2016-08-08T11:25:29.419Z,475
2016-08-08T11:26:29.428Z,415
2016-08-08T11:27:29.438Z,375
2016-08-08T11:28:29.453Z,425
2016-08-08T11:29:29.438Z,460
2016-08-08T11:30:29.463Z,520
2016-08-08T11:31:30.152Z,490
2016-08-08T11:32:29.447Z,455
2016-08-08T11:33:29.464Z,420
2016-08-08T11:34:30.190Z,395
2016-08-08T11:35:29.451Z,435
2016-08-08T11:36:30.165Z,470
2016-08-08T11:37:29.491Z,450
2016-08-08T11:38:29.488Z,435
2016-08-08T11:39:29.501Z,405
2016-08-08T11:40:29.475Z,420
2016-08-08T11:41:29.697Z,380
2016-08-08T11:42:29.484Z,350
2016-08-08T11:43:29.494Z,375
2016-08-08T11:44:29.490Z,410
2016-08-08T11:45:29.487Z,445
2016-08-08T11:46:29.492Z,475
2016-08-08T11:47:29.522Z,450
2016-08-08T11:48:29.508Z,515
2016-08-08T11:49:29.509Z,525
2016-08-08T11:50:29.536Z,485
2016-08-08T11:51:29.539Z,490
2016-08-08T11:52:30.251Z,480
2016-08-08T11:53:30.221Z,510
2016-08-08T11:54:29.545Z,510
2016-08-08T11:55:29.612Z,440
2016-08-08T11:56:29.561Z,475
2016-08-08T11:57:29.570Z,475
2016-08-08T11:58:30.267Z,415
2016-08-08T11:59:29.541Z,425
2016-08-08T12:00:29.583Z,420
2016-08-08T12:01:29.556Z,400
2016-08-08T12:02:29.612Z,370
2016-08-08T12:03:29.555Z,425
2016-08-08T12:04:29.581Z,455
2016-08-08T12:05:30.291Z,430
2016-08-08T12:06:29.592Z,405
2016-08-08T12:07:29.620Z,420
2016-08-08T12:08:29.620Z,430
2016-08-08T12:09:29.592Z,465
2016-08-08T12:10:29.602Z,525
2016-08-08T12:11:29.583Z,545
2016-08-08T12:12:30.305Z,440
2016-08-08T12:13:29.683Z,360
2016-08-08T12:14:29.621Z,360
2016-08-08T12:15:29.646Z,375
2016-08-08T12:16:29.630Z,400
2016-08-08T12:17:29.639Z,445
2016-08-08T12:18:29.613Z,480
2016-08-08T12:19:29.621Z,455
2016-08-08T12:20:29.630Z,480
2016-08-08T12:21:29.661Z,465
2016-08-08T12:22:29.641Z,435
2016-08-08T12:23:29.662Z,425
2016-08-08T12:24:29.648Z,420
2016-08-08T12:25:29.669Z,450
2016-08-08T12:26:29.658Z,430
2016-08-08T12:27:29.658Z,425
2016-08-08T12:28:29.660Z,425
2016-08-08T12:29:29.695Z,445
2016-08-08T12:30:29.739Z,505
2016-08-08T12:31:29.679Z,525
2016-08-08T12:32:29.695Z,550
2016-08-08T12:33:29.718Z,515
2016-08-08T12:34:29.759Z,465
2016-08-08T12:35:29.708Z,460
2016-08-08T12:36:29.698Z,465
2016-08-08T12:37:29.711Z,450
2016-08-08T12:38:30.442Z,470
2016-08-08T12:39:29.714Z,445
2016-08-08T12:40:29.717Z,365
2016-08-08T12:41:29.724Z,325
2016-08-08T12:42:29.716Z,300
2016-08-08T12:43:29.707Z,280
2016-08-08T12:44:29.779Z,285
2016-08-08T12:45:29.784Z,275
2016-08-08T12:46:29.730Z,305
2016-08-08T12:47:29.732Z,285
2016-08-08T12:48:29.755Z,265
2016-08-08T12:49:29.743Z,275
2016-08-08T12:50:29.771Z,265
2016-08-08T12:51:29.776Z,265
2016-08-08T12:52:29.790Z,280
2016-08-08T12:53:29.844Z,315
2016-08-08T12:54:29.754Z,345
2016-08-08T12:55:29.850Z,325
2016-08-08T12:56:29.797Z,300
2016-08-08T12:57:30.490Z,340
2016-08-08T12:58:29.783Z,370
2016-08-08T13:00:29.782Z,360
2016-08-08T13:01:29.803Z,350
2016-08-08T13:02:29.822Z,335
2016-08-08T13:03:29.809Z,350
2016-08-08T13:04:29.768Z,310
2016-08-08T13:05:29.779Z,325
2016-08-08T13:06:29.798Z,385
2016-08-08T13:07:29.834Z,475
2016-08-08T13:08:29.799Z,420
2016-08-08T13:09:29.816Z,360
2016-08-08T13:10:29.807Z,370
2016-08-08T13:11:29.821Z,380
2016-08-08T13:12:29.821Z,395
2016-08-08T13:13:29.807Z,410
2016-08-08T13:14:29.864Z,440
2016-08-08T13:15:29.821Z,425
2016-08-08T13:16:30.521Z,385
2016-08-08T13:17:29.839Z,355
2016-08-08T13:18:29.853Z,320
2016-08-08T13:19:29.834Z,265
2016-08-08T13:20:29.830Z,240
2016-08-08T13:21:29.847Z,235
2016-08-08T13:22:29.850Z,330
2016-08-08T13:23:29.854Z,350
2016-08-08T13:24:29.835Z,330
2016-08-08T13:25:29.856Z,330
2016-08-08T13:26:29.866Z,345
2016-08-08T13:27:29.875Z,400
2016-08-08T13:28:29.871Z,365
2016-08-08T13:29:29.911Z,340
2016-08-08T13:30:30.602Z,330
2016-08-08T13:31:29.870Z,375
2016-08-08T13:32:29.881Z,385
2016-08-08T13:33:31.597Z,400
2016-08-08T13:34:29.896Z,400
2016-08-08T13:35:29.887Z,410
2016-08-08T13:36:30.591Z,425
2016-08-08T13:37:29.966Z,420
2016-08-08T13:38:29.888Z,425
2016-08-08T13:39:29.897Z,410
2016-08-08T13:40:29.902Z,385
2016-08-08T13:41:29.907Z,345
2016-08-08T13:42:29.925Z,330
2016-08-08T13:43:29.897Z,360
2016-08-08T13:44:29.980Z,365
2016-08-08T13:45:29.919Z,330
2016-08-08T13:46:29.946Z,305
2016-08-08T13:47:29.925Z,295
2016-08-08T13:48:29.941Z,400
2016-08-08T13:49:29.934Z,405
2016-08-08T13:50:29.948Z,350
2016-08-08T13:51:30.696Z,335
2016-08-08T13:52:29.943Z,330
2016-08-08T13:53:29.958Z,360
2016-08-08T13:54:29.968Z,395
2016-08-08T13:55:29.957Z,395
2016-08-08T13:56:30.694Z,410
2016-08-08T13:57:29.976Z,380
2016-08-08T13:58:30.012Z,370
2016-08-08T13:59:30.065Z,345
2016-08-08T14:00:29.982Z,315
2016-08-08T14:01:29.992Z,305
2016-08-08T14:02:29.985Z,235
2016-08-08T14:03:30.017Z,190
2016-08-08T14:04:30.004Z,180
2016-08-08T14:05:30.025Z,220
2016-08-08T14:06:30.001Z,260
2016-08-08T14:07:29.997Z,275
2016-08-08T14:08:30.042Z,290
2016-08-08T14:09:29.996Z,270
2016-08-08T14:10:30.035Z,215
2016-08-08T14:11:30.031Z,165
2016-08-08T14:12:30.028Z,180
2016-08-08T14:13:30.015Z,185
2016-08-08T14:15:30.025Z,210
2016-08-08T14:16:30.039Z,185
2016-08-08T14:17:30.042Z,205
2016-08-08T14:18:30.034Z,245